createdAt,value
2023-01-17T00:01:34.073Z,5.20
2023-01-17T00:04:19.618Z,4.70
2023-01-17T00:07:05.085Z,4.80
2023-01-17T00:09:50.567Z,5.30
2023-01-17T00:12:17.488Z,5.20
2023-01-17T00:14:44.350Z,5.00
2023-01-17T00:17:11.004Z,4.80
2023-01-17T00:19:56.489Z,4.80
2023-01-17T00:22:47.582Z,4.80
2023-01-17T00:25:35.066Z,5.90
2023-01-17T00:28:03.452Z,6.60
2023-01-17T00:30:30.256Z,5.40
2023-01-17T00:32:56.934Z,4.70
2023-01-17T00:35:25.334Z,4.70
2023-01-17T00:38:07.363Z,5.00
2023-01-17T00:40:35.697Z,6.10
2023-01-17T00:43:23.587Z,5.10
2023-01-17T00:46:09.636Z,4.90
2023-01-17T00:48:56.000Z,5.60
2023-01-17T00:51:43.291Z,5.10
2023-01-17T00:54:29.841Z,5.50
2023-01-17T00:57:15.823Z,5.50
2023-01-17T01:00:01.424Z,4.90
2023-01-17T01:02:47.992Z,4.30
2023-01-17T01:05:33.965Z,4.00
2023-01-17T01:08:19.535Z,4.10
2023-01-17T01:11:06.080Z,4.10
2023-01-17T01:13:52.361Z,3.90
2023-01-17T01:16:38.123Z,3.80
2023-01-17T01:19:24.510Z,3.80
2023-01-17T01:22:09.827Z,4.00
2023-01-17T01:24:55.416Z,3.80
2023-01-17T01:27:40.908Z,3.60
2023-01-17T01:30:27.073Z,3.50
2023-01-17T01:33:13.428Z,3.50
2023-01-17T01:35:41.902Z,3.50
2023-01-17T01:38:08.897Z,3.40
2023-01-17T01:40:41.181Z,3.40
2023-01-17T01:43:12.494Z,3.30
2023-01-17T01:45:39.858Z,3.30
2023-01-17T01:48:22.594Z,3.30
2023-01-17T01:50:50.566Z,3.10
2023-01-17T01:53:19.544Z,3.20
2023-01-17T01:55:49.496Z,3.00
2023-01-17T01:58:24.192Z,2.90
2023-01-17T02:00:51.806Z,2.90
2023-01-17T02:03:25.724Z,3.10
2023-01-17T02:05:52.928Z,3.00
2023-01-17T02:08:23.424Z,3.20
2023-01-17T02:10:50.732Z,4.60
2023-01-17T02:13:20.629Z,4.20
2023-01-17T02:16:16.612Z,3.80
2023-01-17T02:19:21.403Z,4.10
2023-01-17T02:22:21.336Z,3.90
2023-01-17T02:25:30.182Z,4.10
2023-01-17T02:28:06.071Z,3.40
2023-01-17T02:30:37.307Z,3.90
2023-01-17T02:33:07.740Z,3.40
2023-01-17T02:35:42.208Z,3.20
2023-01-17T02:38:08.989Z,2.80
2023-01-17T02:40:45.176Z,2.90
2023-01-17T02:43:16.752Z,2.90
2023-01-17T02:45:43.621Z,2.90
2023-01-17T02:48:20.971Z,2.90
2023-01-17T02:50:53.635Z,2.80
2023-01-17T02:53:25.437Z,2.80
2023-01-17T02:56:14.385Z,2.70
2023-01-17T02:59:01.333Z,2.80
2023-01-17T03:01:59.328Z,2.70
2023-01-17T03:04:40.414Z,2.70
2023-01-17T03:07:16.431Z,2.70
2023-01-17T03:09:49.415Z,2.90
2023-01-17T03:12:16.179Z,2.70
2023-01-17T03:14:42.865Z,2.60
2023-01-17T03:17:09.532Z,2.60
2023-01-17T03:19:36.249Z,2.80
2023-01-17T03:22:02.934Z,2.60
2023-01-17T03:24:29.723Z,2.60
2023-01-17T03:26:56.522Z,2.70
2023-01-17T03:29:23.240Z,2.50
2023-01-17T03:31:49.891Z,2.40
2023-01-17T03:34:16.810Z,2.50
2023-01-17T03:36:43.569Z,2.40
2023-01-17T03:39:10.196Z,2.30
2023-01-17T03:41:37.102Z,2.20
2023-01-17T03:44:04.091Z,2.20
2023-01-17T03:46:31.009Z,2.10
2023-01-17T03:48:57.696Z,2.10
2023-01-17T03:51:24.390Z,2.00
2023-01-17T03:53:51.987Z,1.90
2023-01-17T03:56:18.949Z,1.90
2023-01-17T03:58:45.725Z,1.80
2023-01-17T04:01:12.723Z,1.70
2023-01-17T04:03:40.016Z,1.70
2023-01-17T04:06:06.928Z,1.80
2023-01-17T04:08:33.613Z,1.80
2023-01-17T04:11:00.299Z,2.00
2023-01-17T04:13:28.994Z,2.30
2023-01-17T04:15:56.392Z,2.40
2023-01-17T04:18:24.478Z,2.40
2023-01-17T04:20:51.582Z,2.80
2023-01-17T04:23:18.543Z,2.40
2023-01-17T04:25:45.427Z,2.10
2023-01-17T04:28:12.567Z,2.00
2023-01-17T04:30:39.402Z,1.90
2023-01-17T04:33:06.241Z,1.90
2023-01-17T04:35:36.085Z,1.90
2023-01-17T04:38:02.812Z,1.90
2023-01-17T04:40:29.676Z,1.80
2023-01-17T04:42:59.527Z,1.70
2023-01-17T04:45:26.494Z,1.80
2023-01-17T04:47:54.284Z,1.80
2023-01-17T04:50:22.074Z,1.70
2023-01-17T04:52:48.725Z,1.80
2023-01-17T04:55:15.658Z,1.80
2023-01-17T04:57:42.404Z,1.70
2023-01-17T05:00:09.660Z,1.70
2023-01-17T05:02:36.478Z,1.80
2023-01-17T05:05:03.179Z,1.80
2023-01-17T05:07:29.910Z,1.60
2023-01-17T05:09:56.684Z,1.60
2023-01-17T05:12:23.360Z,1.70
2023-01-17T05:14:50.126Z,1.70
2023-01-17T05:17:16.775Z,1.70
2023-01-17T05:19:43.638Z,1.60
2023-01-17T05:22:17.318Z,2.00
2023-01-17T05:24:45.597Z,1.90
2023-01-17T05:27:13.518Z,1.70
2023-01-17T05:29:40.371Z,1.60
2023-01-17T05:32:07.386Z,1.60
2023-01-17T05:34:35.019Z,1.50
2023-01-17T05:37:01.859Z,1.50
2023-01-17T05:39:30.915Z,1.50
2023-01-17T05:41:58.171Z,1.50
2023-01-17T05:44:38.657Z,1.50
2023-01-17T05:47:13.399Z,1.30
2023-01-17T05:49:40.110Z,1.40
2023-01-17T05:52:06.828Z,1.30
2023-01-17T05:54:33.546Z,1.40
2023-01-17T05:57:00.224Z,1.30
2023-01-17T05:59:36.585Z,1.60
2023-01-17T06:02:04.189Z,2.30
2023-01-17T06:04:31.084Z,5.80
2023-01-17T06:06:58.894Z,4.70
2023-01-17T06:09:25.548Z,4.20
2023-01-17T06:11:58.081Z,3.70
2023-01-17T06:14:26.771Z,3.50
2023-01-17T06:16:53.507Z,2.50
2023-01-17T06:19:20.264Z,2.40
2023-01-17T06:21:46.921Z,2.30
2023-01-17T06:24:13.711Z,2.60
2023-01-17T06:26:43.903Z,2.50
2023-01-17T06:29:11.972Z,2.60
2023-01-17T06:31:38.819Z,2.80
2023-01-17T06:34:05.627Z,2.90
2023-01-17T06:36:35.395Z,2.30
2023-01-17T06:39:02.172Z,2.10
2023-01-17T06:41:29.030Z,1.90
2023-01-17T06:43:55.888Z,1.90
2023-01-17T06:46:23.262Z,1.80
2023-01-17T06:48:50.524Z,1.80
2023-01-17T06:51:17.693Z,1.70
2023-01-17T06:53:44.445Z,1.60
2023-01-17T06:56:11.173Z,1.60
2023-01-17T06:58:37.825Z,1.50
2023-01-17T07:01:09.337Z,1.50
2023-01-17T07:03:36.529Z,1.50
2023-01-17T07:06:04.711Z,1.50
2023-01-17T07:08:32.029Z,1.40
2023-01-17T07:11:05.146Z,1.40
2023-01-17T07:13:36.424Z,1.40
2023-01-17T07:16:04.752Z,1.20
2023-01-17T07:18:32.549Z,1.20
2023-01-17T07:21:15.106Z,1.10
2023-01-17T07:23:48.105Z,1.10
2023-01-17T07:26:16.837Z,1.00
2023-01-17T07:28:43.893Z,1.00
2023-01-17T07:31:10.603Z,1.10
2023-01-17T07:33:37.395Z,1.10
2023-01-17T07:36:06.550Z,1.10
2023-01-17T07:38:33.958Z,1.00
2023-01-17T07:41:01.008Z,1.00
2023-01-17T07:43:27.788Z,0.90
2023-01-17T07:45:54.820Z,0.90
2023-01-17T07:48:23.973Z,0.90
2023-01-17T07:50:57.731Z,0.80
2023-01-17T07:53:26.225Z,0.80
2023-01-17T07:55:52.992Z,0.90
2023-01-17T07:58:19.976Z,0.80
2023-01-17T08:00:46.940Z,0.80
2023-01-17T08:03:16.189Z,0.80
2023-01-17T08:05:52.451Z,0.90
2023-01-17T08:08:19.123Z,0.90
2023-01-17T08:10:45.836Z,2.10
2023-01-17T08:13:12.497Z,3.10
2023-01-17T08:15:39.190Z,3.90
2023-01-17T08:18:05.969Z,3.90
2023-01-17T08:20:32.679Z,4.00
2023-01-17T08:22:59.453Z,4.20
2023-01-17T08:25:26.974Z,4.60
2023-01-17T08:27:57.754Z,4.50
2023-01-17T08:30:25.430Z,4.70
2023-01-17T08:32:52.181Z,4.60
2023-01-17T08:35:20.109Z,4.60
2023-01-17T08:37:48.588Z,4.90
2023-01-17T08:40:18.168Z,4.70
2023-01-17T08:42:44.858Z,4.70
2023-01-17T08:45:12.554Z,4.50
2023-01-17T08:47:39.286Z,4.60
2023-01-17T08:50:06.988Z,4.60
2023-01-17T08:52:34.482Z,4.50
2023-01-17T08:55:01.260Z,5.30
2023-01-17T08:57:28.189Z,4.90
2023-01-17T08:59:56.967Z,4.50
2023-01-17T09:02:24.789Z,4.60
2023-01-17T09:04:51.979Z,4.60
2023-01-17T09:07:20.638Z,4.80
2023-01-17T09:09:47.643Z,4.90
2023-01-17T09:12:14.483Z,5.10
2023-01-17T09:14:41.235Z,5.10
2023-01-17T09:17:07.965Z,5.20
2023-01-17T09:19:35.493Z,5.30
2023-01-17T09:22:04.268Z,4.70
2023-01-17T09:24:31.224Z,4.40
2023-01-17T09:26:58.012Z,4.50
2023-01-17T09:29:24.688Z,4.30
2023-01-17T09:31:51.490Z,4.30
2023-01-17T09:34:18.669Z,4.80
2023-01-17T09:36:45.597Z,4.60
2023-01-17T09:39:14.963Z,4.70
2023-01-17T09:42:10.823Z,5.00
2023-01-17T09:44:40.223Z,4.60
2023-01-17T09:47:36.051Z,4.50
2023-01-17T09:50:11.954Z,4.90
2023-01-17T09:52:39.799Z,4.90
2023-01-17T09:55:08.184Z,5.20
2023-01-17T09:57:52.531Z,5.80
2023-01-17T10:00:33.220Z,5.50
2023-01-17T10:03:21.351Z,5.90
2023-01-17T10:05:59.757Z,5.50
2023-01-17T10:08:29.246Z,5.60
2023-01-17T10:11:17.337Z,5.80
2023-01-17T10:14:03.112Z,6.30
2023-01-17T10:16:45.100Z,5.80
2023-01-17T10:19:29.706Z,6.00
2023-01-17T10:22:15.257Z,6.40
2023-01-17T10:25:10.470Z,6.20
2023-01-17T10:28:04.720Z,5.80
2023-01-17T10:30:43.580Z,5.60
2023-01-17T10:33:18.036Z,5.50
2023-01-17T10:35:59.677Z,5.40
2023-01-17T10:38:32.641Z,5.60
2023-01-17T10:41:13.654Z,5.90
2023-01-17T10:43:59.421Z,5.70
2023-01-17T10:46:32.601Z,5.40
2023-01-17T10:49:01.252Z,5.40
2023-01-17T10:51:51.478Z,5.10
2023-01-17T10:54:35.251Z,4.90
2023-01-17T10:57:02.085Z,4.60
2023-01-17T10:59:31.516Z,4.90
2023-01-17T11:01:58.815Z,4.90
2023-01-17T11:04:36.604Z,4.90
2023-01-17T11:07:12.763Z,4.80
2023-01-17T11:09:47.160Z,5.00
2023-01-17T11:12:33.909Z,5.10
2023-01-17T11:15:25.835Z,5.70
2023-01-17T11:18:02.599Z,5.90
2023-01-17T11:20:37.877Z,5.60
2023-01-17T11:23:23.939Z,5.70
2023-01-17T11:26:02.644Z,5.50
2023-01-17T11:28:31.912Z,5.50
2023-01-17T11:31:23.928Z,5.30
2023-01-17T11:34:07.294Z,6.10
2023-01-17T11:36:34.478Z,6.60
2023-01-17T11:39:05.425Z,6.30
2023-01-17T11:41:40.802Z,6.50
2023-01-17T11:44:27.940Z,6.90
2023-01-17T11:47:12.776Z,6.50
2023-01-17T11:49:49.920Z,6.80
2023-01-17T11:52:26.159Z,6.40
2023-01-17T11:54:55.919Z,6.10
2023-01-17T11:57:29.222Z,6.20
2023-01-17T12:00:11.816Z,6.50
2023-01-17T12:03:08.613Z,5.90
2023-01-17T12:05:43.735Z,7.00
2023-01-17T12:08:30.346Z,8.10
2023-01-17T12:11:09.510Z,6.80
2023-01-17T12:14:00.778Z,7.50
2023-01-17T12:16:42.571Z,8.00
2023-01-17T12:19:24.256Z,7.00
2023-01-17T12:22:09.180Z,6.90
2023-01-17T12:24:41.951Z,6.00
2023-01-17T12:27:24.574Z,7.10
2023-01-17T12:30:02.013Z,8.60
2023-01-17T12:32:47.573Z,7.10
2023-01-17T12:35:24.732Z,7.00
2023-01-17T12:38:05.315Z,6.60
2023-01-17T12:40:51.311Z,6.80
2023-01-17T12:43:32.980Z,6.60
2023-01-17T12:46:05.430Z,6.10
2023-01-17T12:48:37.868Z,6.50
2023-01-17T12:51:15.615Z,6.90
2023-01-17T12:54:13.030Z,7.20
2023-01-17T12:56:52.413Z,7.00
2023-01-17T12:59:32.193Z,7.70
2023-01-17T13:02:02.357Z,8.50
2023-01-17T13:04:58.722Z,7.50
2023-01-17T13:07:40.626Z,7.10
2023-01-17T13:10:22.656Z,6.80
2023-01-17T13:12:50.893Z,7.90
2023-01-17T13:15:22.510Z,7.10
2023-01-17T13:17:56.871Z,7.30
2023-01-17T13:21:04.916Z,6.90
2023-01-17T13:23:59.065Z,7.20
2023-01-17T13:26:49.946Z,7.60
2023-01-17T13:30:01.940Z,7.60
2023-01-17T13:33:01.783Z,7.40
2023-01-17T13:35:43.599Z,9.40
2023-01-17T13:38:56.394Z,9.20
2023-01-17T13:41:26.244Z,9.00
2023-01-17T13:44:11.898Z,7.40
2023-01-17T13:47:06.636Z,7.60
2023-01-17T13:49:40.739Z,7.90
2023-01-17T13:52:31.045Z,7.60
2023-01-17T13:55:02.998Z,8.70
2023-01-17T13:57:32.999Z,8.50
2023-01-17T14:00:38.833Z,8.50
2023-01-17T14:03:11.401Z,9.10
2023-01-17T14:05:38.093Z,8.50
2023-01-17T14:08:17.313Z,8.60
2023-01-17T14:11:12.126Z,9.50
2023-01-17T14:13:39.856Z,9.10
2023-01-17T14:16:21.556Z,8.50
2023-01-17T14:18:49.281Z,9.60
2023-01-17T14:21:33.633Z,10.30
2023-01-17T14:24:18.061Z,9.40
2023-01-17T14:26:47.713Z,9.00
2023-01-17T14:29:52.227Z,8.50
2023-01-17T14:32:27.473Z,7.90
2023-01-17T14:34:54.546Z,7.70
2023-01-17T14:37:33.382Z,7.60
2023-01-17T14:40:01.020Z,7.60
2023-01-17T14:42:30.587Z,7.70
2023-01-17T14:45:04.340Z,7.90
2023-01-17T14:47:35.078Z,7.50
2023-01-17T14:50:29.248Z,7.40
2023-01-17T14:53:28.179Z,7.30
2023-01-17T14:55:56.830Z,7.10
2023-01-17T14:58:26.838Z,7.20
2023-01-17T15:01:09.296Z,7.10
2023-01-17T15:03:53.538Z,6.90
2023-01-17T15:06:27.748Z,7.10
2023-01-17T15:08:54.632Z,6.20
2023-01-17T15:11:35.415Z,5.80
2023-01-17T15:14:05.932Z,5.70
2023-01-17T15:16:34.444Z,5.60
2023-01-17T15:19:02.852Z,5.50
2023-01-17T15:21:35.453Z,5.30
2023-01-17T15:24:08.325Z,5.30
2023-01-17T15:26:38.846Z,5.10
2023-01-17T15:29:06.924Z,4.90
2023-01-17T15:31:51.043Z,5.10
2023-01-17T15:34:44.452Z,5.20
2023-01-17T15:37:41.444Z,5.00
2023-01-17T15:40:31.215Z,5.00
2023-01-17T15:43:01.361Z,5.30
2023-01-17T15:45:31.983Z,6.50
2023-01-17T15:48:18.772Z,6.00
2023-01-17T15:50:45.579Z,6.00
2023-01-17T15:53:36.687Z,5.90
2023-01-17T15:56:29.773Z,5.40
2023-01-17T15:59:20.173Z,5.50
2023-01-17T16:01:55.392Z,5.90
2023-01-17T16:04:37.254Z,6.30
2023-01-17T16:07:21.825Z,6.70
2023-01-17T16:09:49.601Z,6.60
2023-01-17T16:12:16.356Z,6.40
2023-01-17T16:15:02.434Z,6.40
2023-01-17T16:17:30.851Z,6.50
2023-01-17T16:19:57.705Z,6.70
2023-01-17T16:22:24.752Z,6.80
2023-01-17T16:24:52.526Z,7.40
2023-01-17T16:27:20.029Z,7.50
2023-01-17T16:29:46.744Z,7.30
2023-01-17T16:32:15.429Z,7.40
2023-01-17T16:34:42.444Z,7.50
2023-01-17T16:37:11.084Z,7.50
2023-01-17T16:39:39.856Z,7.40
2023-01-17T16:42:27.145Z,7.30
2023-01-17T16:44:55.047Z,7.20
2023-01-17T16:47:22.615Z,7.10
2023-01-17T16:49:49.363Z,7.70
2023-01-17T16:52:16.114Z,7.40
2023-01-17T16:54:42.813Z,7.10
2023-01-17T16:57:09.672Z,7.00
2023-01-17T16:59:49.983Z,7.10
2023-01-17T17:02:19.399Z,7.20
2023-01-17T17:04:46.057Z,7.20
2023-01-17T17:07:12.861Z,7.10
2023-01-17T17:09:39.539Z,7.00
2023-01-17T17:12:06.722Z,7.10
2023-01-17T17:14:33.485Z,7.00
2023-01-17T17:17:02.975Z,6.90
2023-01-17T17:19:29.925Z,6.90
2023-01-17T17:22:06.506Z,6.90
2023-01-17T17:24:33.330Z,6.80
2023-01-17T17:27:00.100Z,7.10
2023-01-17T17:29:26.860Z,7.10
2023-01-17T17:31:53.994Z,7.50
2023-01-17T17:34:23.228Z,8.70
2023-01-17T17:36:51.957Z,8.40
2023-01-17T17:39:19.991Z,7.90
2023-01-17T17:41:46.805Z,7.80
2023-01-17T17:44:13.663Z,7.70
2023-01-17T17:46:42.081Z,3.50
2023-01-17T17:49:09.475Z,1.10
2023-01-17T17:51:39.297Z,3.20
2023-01-17T17:54:12.166Z,5.60
2023-01-17T17:56:39.441Z,6.50
2023-01-17T17:59:08.913Z,7.00
2023-01-17T18:01:38.349Z,7.10
2023-01-17T18:04:07.396Z,7.30
2023-01-17T18:06:35.065Z,7.30
2023-01-17T18:09:02.817Z,7.20
2023-01-17T18:11:30.335Z,7.10
2023-01-17T18:13:59.925Z,7.00
2023-01-17T18:16:30.157Z,7.10
2023-01-17T18:18:59.217Z,7.00
2023-01-17T18:21:28.716Z,7.10
2023-01-17T18:24:01.089Z,6.90
2023-01-17T18:26:32.334Z,6.50
2023-01-17T18:29:01.506Z,6.20
2023-01-17T18:31:30.498Z,6.10
2023-01-17T18:34:00.154Z,5.80
2023-01-17T18:36:28.970Z,5.80
2023-01-17T18:38:55.837Z,5.70
2023-01-17T18:41:26.579Z,5.50
2023-01-17T18:43:55.988Z,5.40
2023-01-17T18:46:24.118Z,5.40
2023-01-17T18:48:50.833Z,5.40
2023-01-17T18:51:19.401Z,5.30
2023-01-17T18:53:46.770Z,5.40
2023-01-17T18:56:19.944Z,5.50
2023-01-17T18:58:48.479Z,5.50
2023-01-17T19:01:18.294Z,5.50
2023-01-17T19:03:47.373Z,5.50
2023-01-17T19:06:19.857Z,5.50
2023-01-17T19:08:46.703Z,5.30
2023-01-17T19:11:13.396Z,5.30
2023-01-17T19:13:41.867Z,5.50
2023-01-17T19:16:14.247Z,5.30
2023-01-17T19:18:41.458Z,5.30
2023-01-17T19:21:11.898Z,5.40
2023-01-17T19:23:40.117Z,5.20
2023-01-17T19:26:08.566Z,5.10
2023-01-17T19:28:46.329Z,4.90
2023-01-17T19:31:15.535Z,5.00
2023-01-17T19:33:44.215Z,5.20
2023-01-17T19:36:14.341Z,5.20
2023-01-17T19:38:41.905Z,5.00
2023-01-17T19:41:15.858Z,4.70
2023-01-17T19:43:43.586Z,5.00
2023-01-17T19:46:11.678Z,5.00
2023-01-17T19:48:39.798Z,4.80
2023-01-17T19:51:11.897Z,4.90
2023-01-17T19:53:39.983Z,5.10
2023-01-17T19:56:16.246Z,5.30
2023-01-17T19:58:47.710Z,5.40
2023-01-17T20:01:28.593Z,5.50
2023-01-17T20:03:57.935Z,5.50
2023-01-17T20:06:29.187Z,5.40
2023-01-17T20:08:56.569Z,5.50
2023-01-17T20:11:26.209Z,5.60
2023-01-17T20:13:55.830Z,5.60
2023-01-17T20:16:24.277Z,5.60
2023-01-17T20:18:51.671Z,5.70
2023-01-17T20:21:23.891Z,5.60
2023-01-17T20:23:52.321Z,5.60
2023-01-17T20:26:25.324Z,5.50
2023-01-17T20:28:52.283Z,5.50
2023-01-17T20:31:21.904Z,5.50
2023-01-17T20:33:53.675Z,5.60
2023-01-17T20:36:25.343Z,5.50
2023-01-17T20:38:53.236Z,5.50
2023-01-17T20:41:31.561Z,5.30
2023-01-17T20:43:59.940Z,5.30
2023-01-17T20:46:29.240Z,5.30
2023-01-17T20:48:57.929Z,5.40
2023-01-17T20:51:26.798Z,5.40
2023-01-17T20:53:59.165Z,5.40
2023-01-17T20:56:26.577Z,5.40
2023-01-17T20:58:54.285Z,5.50
2023-01-17T21:01:22.596Z,5.40
2023-01-17T21:03:53.055Z,5.40
2023-01-17T21:06:21.590Z,5.50
2023-01-17T21:08:49.156Z,5.40
2023-01-17T21:11:22.174Z,5.40
2023-01-17T21:13:49.774Z,6.20
2023-01-17T21:16:17.735Z,2.90
2023-01-17T21:18:47.650Z,1.40
2023-01-17T21:21:21.890Z,1.00
2023-01-17T21:23:50.701Z,0.80
2023-01-17T21:26:18.933Z,0.70
2023-01-17T21:28:47.618Z,0.60
2023-01-17T21:31:24.797Z,0.50
2023-01-17T21:33:56.476Z,0.50
2023-01-17T21:36:26.409Z,0.30
2023-01-17T21:38:56.942Z,0.30
2023-01-17T21:41:26.530Z,0.20
2023-01-17T21:43:58.500Z,0.20
2023-01-17T21:46:26.897Z,0.10
2023-01-17T21:48:53.944Z,0.10
2023-01-17T21:51:21.777Z,0.10
2023-01-17T21:53:48.554Z,0.10
2023-01-17T21:56:34.085Z,0.20
2023-01-17T21:59:01.096Z,0.00
2023-01-17T22:01:32.419Z,-0.10
2023-01-17T22:04:02.746Z,-0.10
2023-01-17T22:06:32.446Z,-0.20
2023-01-17T22:08:59.476Z,-0.10
2023-01-17T22:11:27.559Z,-0.20
2023-01-17T22:13:54.463Z,-0.10
2023-01-17T22:16:25.987Z,-0.20
2023-01-17T22:18:52.954Z,-0.10
2023-01-17T22:21:22.086Z,-0.10
2023-01-17T22:23:53.257Z,-0.20
2023-01-17T22:26:22.226Z,-0.20
2023-01-17T22:28:49.034Z,-0.30
2023-01-17T22:31:19.218Z,-0.30
2023-01-17T22:33:47.094Z,-0.40
2023-01-17T22:36:14.792Z,-0.40
2023-01-17T22:38:44.934Z,-0.40
2023-01-17T22:41:16.069Z,-0.40
2023-01-17T22:43:45.041Z,-0.40
2023-01-17T22:46:14.914Z,-0.40
2023-01-17T22:48:42.155Z,-0.50
2023-01-17T22:51:12.255Z,-0.50
2023-01-17T22:53:46.442Z,-0.60
2023-01-17T22:56:15.786Z,-0.60
2023-01-17T22:58:44.955Z,-0.50
2023-01-17T23:01:14.843Z,-0.60
2023-01-17T23:03:41.979Z,-0.60
2023-01-17T23:06:17.182Z,-0.60
2023-01-17T23:08:46.042Z,-0.70
2023-01-17T23:11:41.175Z,-0.60
2023-01-17T23:14:12.621Z,-0.70
2023-01-17T23:17:00.979Z,-0.70
2023-01-17T23:19:30.937Z,-0.70
2023-01-17T23:22:19.429Z,-0.70
2023-01-17T23:24:46.168Z,-0.80
2023-01-17T23:27:38.423Z,-0.80
2023-01-17T23:30:10.824Z,-0.80
2023-01-17T23:32:43.876Z,-0.80
2023-01-17T23:35:10.675Z,-0.80
2023-01-17T23:37:55.985Z,-0.80
2023-01-17T23:40:22.801Z,-0.80
2023-01-17T23:43:08.381Z,-0.90
2023-01-17T23:45:36.555Z,-0.90
2023-01-17T23:48:05.558Z,-0.90
2023-01-17T23:50:33.227Z,-1.00
2023-01-17T23:53:00.320Z,-0.90
2023-01-17T23:55:29.522Z,-0.90
2023-01-17T23:57:56.247Z,-1.00
